Washington, DC (20076)

1:11 PM EDT on September 21, 2014 (GMT -0400)
Somerset | Change Station
CLOSE
Current Station
Personal Weather Station
Location: Chevy Chase, MD
Elevation: 330 ft
Nearby Weather Stations

Elev 330 ft 38.97 °N, 77.09 °W | Updated 1 minute ago

Clear
Clear
82.9 °F
Feels Like 85 °F
N
2.0
Wind Variable Wind from ESE
Gusts 5.0 mph

Today
High -- | Low -- °F
--% Chance of Precip.
Yesterday
High -- | Low -- °F
Precip. -- in
6:55 AM 7:07 PM
Waning Crescent, 6% visible
Pressure 29.79 in
Visibility 10.0 miles
Clouds Mostly Cloudy 25000 ft
Heat Index 85 °F
Dew Point 65 °F
Humidity 55%
Rainfall 0.00 in
Snow Depth Not available.
UV 4 out of 12
Pollen 4.00 out of 12
Air Quality Not available.
Flu Activity Not available.
METAR KDCA 211652Z 12003KT 10SM BKN250 26/16 A2979 RMK AO2 SLP088 T02610156

More Conditions Fewer Conditions

Pressure 29.79 in
Visibility 10.0 miles
Clouds Mostly Cloudy 25000 ft
Heat Index 85 °F
Dew Point 65 °F
Humidity 55%
Rainfall 0.00 in
Snow Depth Not available.
UV 4 out of 12
Pollen 4.00 out of 12
Air Quality Not available.
Flu Activity Not available.
METAR KDCA 211652Z 12003KT 10SM BKN250 26/16 A2979 RMK AO2 SLP088 T02610156

More Conditions Fewer Conditions

10-Day Weather Forecast

Almanac

Astronomy

Sep. 21, 2014 Rise Set
Actual Time 6:55 AM EDT 7:07 PM EDT
Civil Twilight 6:28 AM EDT 7:33 PM EDT
Nautical Twilight 5:57 AM EDT 8:04 PM EDT
Astronomical Twilight 5:25 AM EDT 8:36 PM EDT
Moon 4:27 AM EDT 5:41 PM EDT
Length of Visible Light 13h 05m
Length of Day
12h 11m
Tomorrow will be 2m 30s shorter.
Waning Crescent, 6% of the Moon is Illuminated
Today
Waning Crescent
Sep 24
New
Oct 1
First Quarter
Oct 8
Full
Oct 15
Last Quarter

Today's Extremes

State Highs State Lows

Community

WunderPhotos

Upload Photos

1,755,197 photos uploaded!

WunderBlogs® & News

Nearby

Snow Depth

Station Depth Elevation
No new snow has been reported.

Earthquake Activity

City Distance Mag. Time & Date
No recent earthquake activity has been reported nearby.
Minimum magnitude displayed is 2.5.

Coastal Water Temperatures

Place Temperature
Washington, DC 73.9 °F
Baltimore, MD 75.0 °F
Solomons Island, MD 75.9 °F

Nearby Weather Stations